createdAt,value
2023-02-16T00:01:52.189Z,50.25
2023-02-16T00:04:20.519Z,49.72
2023-02-16T00:06:48.237Z,49.99
2023-02-16T00:09:15.409Z,49.97
2023-02-16T00:12:01.187Z,50.08
2023-02-16T00:14:28.273Z,50.05
2023-02-16T00:16:59.467Z,50.74
2023-02-16T00:19:33.625Z,50.58
2023-02-16T00:22:01.091Z,50.56
2023-02-16T00:24:29.481Z,50.68
2023-02-16T00:26:57.647Z,50.53
2023-02-16T00:29:30.516Z,51.14
2023-02-16T00:31:58.819Z,50.66
2023-02-16T00:34:43.364Z,50.73
2023-02-16T00:37:13.389Z,51.09
2023-02-16T00:39:42.229Z,50.94
2023-02-16T00:42:11.697Z,50.92
2023-02-16T00:44:47.942Z,51.41
2023-02-16T00:47:23.690Z,51.71
2023-02-16T00:49:53.130Z,52.36
2023-02-16T00:52:31.676Z,52.24
2023-02-16T00:54:59.982Z,52.44
2023-02-16T00:57:30.838Z,52.38
2023-02-16T01:00:06.498Z,52.20
2023-02-16T01:02:33.138Z,51.76
2023-02-16T01:04:59.787Z,51.58
2023-02-16T01:07:45.436Z,51.84
2023-02-16T01:10:30.724Z,51.93
2023-02-16T01:12:57.369Z,52.02
2023-02-16T01:15:25.940Z,51.58
2023-02-16T01:17:52.893Z,51.99
2023-02-16T01:20:25.104Z,51.82
2023-02-16T01:22:51.827Z,51.48
2023-02-16T01:25:18.391Z,51.31
2023-02-16T01:27:47.610Z,51.54
2023-02-16T01:30:17.232Z,51.14
2023-02-16T01:32:51.175Z,51.29
2023-02-16T01:35:34.238Z,51.02
2023-02-16T01:38:00.837Z,51.08
2023-02-16T01:40:40.525Z,51.05
2023-02-16T01:43:21.985Z,51.28
2023-02-16T01:45:56.965Z,51.44
2023-02-16T01:48:31.617Z,50.90
2023-02-16T01:51:06.791Z,50.40
2023-02-16T01:53:41.233Z,50.43
2023-02-16T01:56:19.143Z,51.10
2023-02-16T01:58:55.483Z,50.40
2023-02-16T02:01:36.401Z,49.49
2023-02-16T02:04:29.774Z,50.86
2023-02-16T02:06:56.537Z,50.28
2023-02-16T02:09:30.766Z,50.39
2023-02-16T02:12:06.233Z,51.22
2023-02-16T02:14:35.444Z,50.50
2023-02-16T02:17:13.275Z,50.94
2023-02-16T02:20:04.663Z,50.42
2023-02-16T02:22:50.050Z,50.69
2023-02-16T02:25:38.752Z,51.63
2023-02-16T02:28:11.279Z,51.61
2023-02-16T02:30:56.308Z,51.27
2023-02-16T02:33:32.574Z,51.54
2023-02-16T02:36:11.109Z,51.33
2023-02-16T02:38:56.531Z,50.76
2023-02-16T02:41:57.490Z,52.21
2023-02-16T02:44:29.014Z,52.13
2023-02-16T02:46:56.089Z,52.81
2023-02-16T02:49:23.229Z,51.57
2023-02-16T02:51:51.053Z,51.86
2023-02-16T02:54:59.927Z,51.78
2023-02-16T02:57:58.076Z,52.01
2023-02-16T03:00:41.467Z,51.33
2023-02-16T03:03:20.791Z,51.39
2023-02-16T03:05:58.378Z,50.74
2023-02-16T03:08:28.916Z,51.00
2023-02-16T03:11:23.551Z,50.86
2023-02-16T03:14:07.127Z,51.06
2023-02-16T03:16:47.043Z,50.52
2023-02-16T03:19:36.884Z,50.77
2023-02-16T03:22:23.698Z,51.32
2023-02-16T03:25:08.856Z,52.33
2023-02-16T03:28:01.195Z,51.28
2023-02-16T03:30:28.935Z,50.75
2023-02-16T03:32:55.543Z,51.10
2023-02-16T03:35:22.428Z,52.08
2023-02-16T03:37:49.079Z,51.57
2023-02-16T03:40:29.626Z,50.72
2023-02-16T03:43:02.746Z,50.58
2023-02-16T03:45:30.392Z,50.39
2023-02-16T03:47:57.134Z,50.82
2023-02-16T03:50:26.337Z,50.91
2023-02-16T03:53:06.431Z,50.16
2023-02-16T03:55:37.816Z,50.42
2023-02-16T03:58:06.007Z,50.42
2023-02-16T04:00:33.631Z,50.63
2023-02-16T04:03:00.484Z,50.86
2023-02-16T04:05:27.326Z,50.66
2023-02-16T04:07:54.149Z,50.89
2023-02-16T04:10:23.533Z,50.72
2023-02-16T04:12:50.555Z,50.35
2023-02-16T04:15:21.160Z,50.55
2023-02-16T04:17:48.564Z,50.16
2023-02-16T04:20:20.439Z,50.00
2023-02-16T04:22:49.968Z,50.46
2023-02-16T04:25:18.732Z,49.31
2023-02-16T04:27:46.054Z,49.51
2023-02-16T04:30:15.364Z,49.33
2023-02-16T04:32:42.001Z,49.66
2023-02-16T04:35:09.464Z,49.56
2023-02-16T04:37:36.206Z,49.62
2023-02-16T04:40:03.480Z,49.70
2023-02-16T04:42:30.029Z,50.26
2023-02-16T04:44:56.684Z,50.84
2023-02-16T04:47:25.769Z,50.85
2023-02-16T04:49:53.441Z,50.93
2023-02-16T04:52:20.543Z,51.23
2023-02-16T04:54:47.138Z,51.84
2023-02-16T04:57:13.874Z,52.23
2023-02-16T04:59:40.549Z,52.66
2023-02-16T05:02:07.393Z,52.24
2023-02-16T05:04:34.550Z,52.47
2023-02-16T05:07:01.224Z,52.30
2023-02-16T05:09:27.853Z,52.22
2023-02-16T05:12:12.965Z,52.54
2023-02-16T05:14:42.657Z,51.98
2023-02-16T05:17:16.327Z,52.57
2023-02-16T05:19:45.362Z,52.02
2023-02-16T05:22:12.420Z,52.94
2023-02-16T05:24:39.682Z,53.00
2023-02-16T05:27:09.593Z,52.98
2023-02-16T05:29:36.184Z,51.38
2023-02-16T05:32:04.724Z,51.77
2023-02-16T05:34:31.897Z,52.94
2023-02-16T05:36:58.703Z,53.00
2023-02-16T05:39:25.318Z,52.81
2023-02-16T05:41:51.958Z,52.99
2023-02-16T05:44:18.631Z,53.08
2023-02-16T05:46:46.546Z,53.00
2023-02-16T05:49:14.591Z,52.98
2023-02-16T05:51:41.383Z,52.21
2023-02-16T05:54:10.639Z,52.30
2023-02-16T05:56:37.214Z,52.92
2023-02-16T05:59:03.854Z,53.08
2023-02-16T06:01:30.409Z,52.93
2023-02-16T06:03:57.173Z,53.21
2023-02-16T06:06:23.795Z,53.36
2023-02-16T06:08:50.429Z,53.42
2023-02-16T06:11:35.702Z,53.82
2023-02-16T06:14:10.833Z,54.18
2023-02-16T06:16:39.670Z,54.01
2023-02-16T06:19:06.733Z,54.47
2023-02-16T06:21:33.850Z,54.31
2023-02-16T06:24:00.570Z,53.59
2023-02-16T06:26:27.684Z,53.59
2023-02-16T06:28:55.408Z,53.12
2023-02-16T06:31:22.568Z,53.86
2023-02-16T06:33:49.436Z,53.19
2023-02-16T06:36:16.769Z,53.54
2023-02-16T06:38:44.096Z,53.40
2023-02-16T06:41:11.236Z,53.14
2023-02-16T06:43:37.925Z,53.52
2023-02-16T06:46:04.651Z,53.11
2023-02-16T06:48:31.139Z,53.19
2023-02-16T06:50:57.765Z,53.27
2023-02-16T06:53:25.382Z,53.24
2023-02-16T06:55:52.343Z,52.81
2023-02-16T06:58:19.108Z,52.72
2023-02-16T07:00:45.808Z,52.75
2023-02-16T07:03:12.526Z,52.35
2023-02-16T07:05:39.193Z,52.52
2023-02-16T07:08:05.948Z,52.29
2023-02-16T07:10:43.853Z,52.50
2023-02-16T07:13:15.862Z,52.16
2023-02-16T07:15:43.125Z,52.19
2023-02-16T07:18:13.207Z,52.22
2023-02-16T07:20:39.721Z,52.19
2023-02-16T07:23:06.655Z,52.24
2023-02-16T07:25:35.297Z,52.19
2023-02-16T07:28:02.689Z,51.96
2023-02-16T07:30:29.315Z,52.23
2023-02-16T07:32:55.992Z,52.27
2023-02-16T07:35:22.762Z,52.19
2023-02-16T07:37:49.625Z,52.13
2023-02-16T07:40:16.503Z,52.02
2023-02-16T07:42:43.037Z,52.37
2023-02-16T07:45:10.079Z,51.46
2023-02-16T07:47:36.726Z,52.18
2023-02-16T07:50:03.615Z,52.29
2023-02-16T07:52:31.301Z,52.22
2023-02-16T07:54:59.076Z,52.38
2023-02-16T07:57:29.317Z,52.49
2023-02-16T07:59:56.156Z,52.04
2023-02-16T08:02:23.830Z,52.01
2023-02-16T08:04:52.855Z,51.29
2023-02-16T08:07:19.990Z,51.64
2023-02-16T08:09:46.838Z,51.55
2023-02-16T08:12:15.556Z,51.58
2023-02-16T08:14:42.878Z,51.28
2023-02-16T08:17:10.203Z,51.35
2023-02-16T08:19:40.583Z,51.68
2023-02-16T08:22:08.760Z,50.88
2023-02-16T08:24:35.790Z,50.76
2023-02-16T08:27:04.450Z,50.48
2023-02-16T08:29:33.175Z,50.65
2023-02-16T08:32:01.317Z,50.11
2023-02-16T08:34:27.964Z,50.32
2023-02-16T08:36:56.744Z,50.35
2023-02-16T08:39:29.849Z,49.93
2023-02-16T08:41:56.818Z,50.13
2023-02-16T08:44:25.192Z,50.45
2023-02-16T08:46:54.029Z,50.24
2023-02-16T08:49:22.649Z,50.15
2023-02-16T08:51:55.128Z,50.41
2023-02-16T08:54:28.985Z,49.96
2023-02-16T08:56:57.169Z,50.28
2023-02-16T08:59:27.262Z,50.74
2023-02-16T09:01:55.183Z,50.70
2023-02-16T09:04:21.812Z,50.57
2023-02-16T09:06:48.445Z,50.17
2023-02-16T09:09:15.767Z,49.90
2023-02-16T09:11:42.532Z,49.96
2023-02-16T09:14:10.315Z,49.95
2023-02-16T09:16:39.893Z,49.78
2023-02-16T09:19:08.460Z,49.56
2023-02-16T09:21:34.982Z,50.03
2023-02-16T09:24:04.189Z,49.43
2023-02-16T09:26:33.194Z,49.46
2023-02-16T09:29:01.975Z,50.24
2023-02-16T09:31:30.855Z,50.00
2023-02-16T09:34:02.642Z,50.08
2023-02-16T09:36:29.824Z,50.41
2023-02-16T09:38:57.043Z,50.57
2023-02-16T09:41:34.063Z,50.50
2023-02-16T09:44:18.949Z,50.65
2023-02-16T09:46:47.676Z,50.28
2023-02-16T09:49:28.316Z,50.45
2023-02-16T09:52:08.909Z,49.71
2023-02-16T09:54:53.596Z,49.98
2023-02-16T09:57:35.834Z,49.79
2023-02-16T10:00:33.410Z,50.54
2023-02-16T10:03:38.253Z,50.55
2023-02-16T10:06:40.451Z,50.83
2023-02-16T10:09:16.230Z,51.21
2023-02-16T10:11:49.810Z,50.75
2023-02-16T10:14:23.039Z,51.53
2023-02-16T10:16:52.566Z,51.13
2023-02-16T10:19:23.826Z,51.49
2023-02-16T10:21:55.056Z,50.81
2023-02-16T10:24:21.792Z,50.95
2023-02-16T10:27:07.424Z,52.07
2023-02-16T10:29:34.164Z,51.49
2023-02-16T10:32:24.945Z,52.17
2023-02-16T10:34:56.072Z,51.44
2023-02-16T10:37:51.848Z,51.90
2023-02-16T10:40:33.048Z,52.28
2023-02-16T10:43:18.108Z,52.42
2023-02-16T10:45:59.428Z,51.86
2023-02-16T10:48:26.198Z,52.47
2023-02-16T10:51:09.095Z,52.28
2023-02-16T10:53:38.608Z,51.72
2023-02-16T10:56:31.628Z,52.32
2023-02-16T10:59:00.714Z,52.18
2023-02-16T11:01:40.079Z,51.80
2023-02-16T11:04:06.801Z,51.88
2023-02-16T11:06:36.494Z,51.85
2023-02-16T11:09:04.413Z,52.19
2023-02-16T11:11:37.129Z,52.01
2023-02-16T11:14:09.043Z,52.20
2023-02-16T11:16:36.146Z,53.08
2023-02-16T11:19:08.671Z,52.20
2023-02-16T11:21:42.960Z,53.36
2023-02-16T11:24:13.350Z,54.23
2023-02-16T11:26:39.967Z,54.34
2023-02-16T11:29:19.638Z,53.99
2023-02-16T11:31:46.627Z,53.35
2023-02-16T11:34:34.676Z,53.61
2023-02-16T11:37:25.933Z,53.48
2023-02-16T11:39:54.591Z,53.72
2023-02-16T11:42:35.700Z,54.27
2023-02-16T11:45:05.084Z,54.81
2023-02-16T11:47:34.457Z,54.52
2023-02-16T11:50:13.308Z,55.89
2023-02-16T11:52:40.030Z,56.89
2023-02-16T11:55:21.887Z,57.26
2023-02-16T11:57:49.005Z,57.75
2023-02-16T12:00:24.456Z,58.96
2023-02-16T12:03:08.958Z,59.32
2023-02-16T12:05:43.295Z,59.18
2023-02-16T12:08:39.342Z,59.04
2023-02-16T12:11:25.555Z,60.30
2023-02-16T12:13:59.341Z,60.91
2023-02-16T12:16:49.450Z,61.08
2023-02-16T12:19:32.857Z,60.04
2023-02-16T12:22:23.845Z,60.94
2023-02-16T12:25:09.857Z,59.89
2023-02-16T12:27:45.676Z,60.84
2023-02-16T12:30:12.427Z,60.99
2023-02-16T12:33:00.964Z,61.07
2023-02-16T12:35:42.346Z,61.70
2023-02-16T12:38:29.561Z,61.39
2023-02-16T12:41:26.309Z,61.61
2023-02-16T12:44:06.993Z,61.02
2023-02-16T12:46:43.845Z,61.28
2023-02-16T12:49:14.057Z,60.94
2023-02-16T12:51:50.284Z,61.22
2023-02-16T12:54:27.519Z,60.88
2023-02-16T12:56:59.845Z,61.22
2023-02-16T12:59:49.257Z,60.71
2023-02-16T13:02:42.419Z,60.49
2023-02-16T13:05:13.484Z,60.17
2023-02-16T13:07:42.957Z,60.70
2023-02-16T13:10:31.541Z,60.84
2023-02-16T13:13:04.707Z,60.68
2023-02-16T13:15:37.045Z,61.07
2023-02-16T13:18:17.870Z,60.99
2023-02-16T13:20:49.411Z,61.26
2023-02-16T13:23:25.073Z,61.88
2023-02-16T13:26:32.126Z,61.65
2023-02-16T13:28:58.873Z,62.00
2023-02-16T13:31:53.500Z,61.55
2023-02-16T13:34:41.214Z,61.12
2023-02-16T13:37:26.177Z,61.25
2023-02-16T13:40:05.032Z,61.46
2023-02-16T13:42:57.384Z,61.83
2023-02-16T13:45:32.202Z,62.13
2023-02-16T13:47:59.467Z,61.59
2023-02-16T13:50:32.773Z,61.61
2023-02-16T13:53:15.895Z,61.64
2023-02-16T13:55:42.500Z,61.30
2023-02-16T13:58:12.394Z,61.74
2023-02-16T14:00:42.215Z,63.16
2023-02-16T14:03:16.447Z,63.01
2023-02-16T14:05:45.700Z,62.94
2023-02-16T14:08:20.684Z,63.08
2023-02-16T14:10:53.786Z,62.77
2023-02-16T14:13:37.659Z,62.19
2023-02-16T14:16:12.420Z,62.94
2023-02-16T14:18:46.250Z,62.69
2023-02-16T14:21:28.417Z,62.76
2023-02-16T14:23:57.420Z,63.19
2023-02-16T14:26:24.457Z,62.89
2023-02-16T14:29:12.538Z,63.18
2023-02-16T14:31:44.388Z,63.04
2023-02-16T14:34:24.922Z,62.57
2023-02-16T14:37:16.868Z,63.22
2023-02-16T14:40:06.550Z,65.03
2023-02-16T14:42:35.650Z,64.03
2023-02-16T14:45:48.494Z,65.57
2023-02-16T14:48:28.925Z,65.02
2023-02-16T14:51:12.844Z,66.29
2023-02-16T14:54:13.710Z,67.25
2023-02-16T14:56:49.930Z,65.97
2023-02-16T14:59:40.471Z,67.64
2023-02-16T15:02:30.127Z,67.50
2023-02-16T15:04:58.107Z,67.05
2023-02-16T15:07:28.017Z,66.75
2023-02-16T15:12:38.997Z,66.12
2023-02-16T15:15:10.085Z,64.79
2023-02-16T15:17:39.084Z,65.05
2023-02-16T15:20:29.238Z,65.61
2023-02-16T15:23:03.542Z,65.47
2023-02-16T15:25:39.162Z,64.61
2023-02-16T15:28:08.752Z,63.94
2023-02-16T15:30:37.735Z,64.35
2023-02-16T15:33:07.345Z,63.56
2023-02-16T15:35:42.592Z,63.60
2023-02-16T15:38:12.652Z,63.61
2023-02-16T15:40:40.254Z,64.21
2023-02-16T15:43:35.876Z,63.57
2023-02-16T15:46:06.959Z,63.44
2023-02-16T15:48:37.527Z,63.65
2023-02-16T15:51:12.212Z,63.46
2023-02-16T15:53:44.667Z,64.28
2023-02-16T15:56:26.554Z,63.52
2023-02-16T15:58:54.912Z,63.31
2023-02-16T16:01:37.191Z,62.88
2023-02-16T16:04:16.793Z,62.92
2023-02-16T16:06:45.476Z,62.85
2023-02-16T16:09:25.920Z,63.34
2023-02-16T16:11:55.754Z,63.85
2023-02-16T16:14:24.315Z,64.35
2023-02-16T16:16:51.447Z,64.14
2023-02-16T16:19:20.126Z,63.50
2023-02-16T16:21:49.626Z,63.34
2023-02-16T16:24:32.423Z,63.27
2023-02-16T16:27:01.118Z,63.90
2023-02-16T16:29:35.693Z,64.43
2023-02-16T16:32:04.095Z,63.96
2023-02-16T16:34:32.419Z,64.50
2023-02-16T16:36:59.629Z,64.22
2023-02-16T16:42:18.999Z,63.76
2023-02-16T16:45:07.950Z,63.01
2023-02-16T16:47:39.431Z,63.48
2023-02-16T16:50:29.038Z,64.01
2023-02-16T16:52:56.032Z,63.53
2023-02-16T16:55:27.465Z,63.30
2023-02-16T16:57:57.036Z,63.47
2023-02-16T17:00:26.854Z,63.39
2023-02-16T17:02:53.862Z,63.24
2023-02-16T17:05:20.874Z,64.35
2023-02-16T17:07:49.972Z,63.67
2023-02-16T17:10:18.339Z,63.47
2023-02-16T17:12:46.517Z,63.33
2023-02-16T17:15:27.527Z,63.02
2023-02-16T17:17:54.509Z,62.79
2023-02-16T17:20:22.294Z,62.96
2023-02-16T17:22:48.902Z,62.54
2023-02-16T17:25:15.693Z,62.59
2023-02-16T17:27:42.530Z,63.47
2023-02-16T17:30:10.935Z,62.50
2023-02-16T17:32:37.602Z,62.53
2023-02-16T17:35:05.517Z,62.64
2023-02-16T17:37:32.988Z,62.24
2023-02-16T17:39:59.707Z,62.42
2023-02-16T17:42:28.134Z,62.01
2023-02-16T17:44:58.031Z,62.19
2023-02-16T17:47:28.043Z,61.45
2023-02-16T17:49:55.106Z,61.68
2023-02-16T17:52:21.650Z,61.11
2023-02-16T17:54:48.412Z,61.28
2023-02-16T17:57:15.140Z,61.14
2023-02-16T17:59:42.137Z,60.86
2023-02-16T18:02:12.024Z,61.89
2023-02-16T18:04:41.054Z,61.26
2023-02-16T18:07:12.228Z,61.26
2023-02-16T18:09:39.113Z,60.87
2023-02-16T18:12:06.072Z,61.06
2023-02-16T18:14:34.749Z,60.91
2023-02-16T18:17:02.426Z,60.77
2023-02-16T18:19:30.287Z,60.64
2023-02-16T18:21:58.185Z,60.01
2023-02-16T18:24:26.072Z,59.96
2023-02-16T18:26:55.811Z,61.06
2023-02-16T18:29:24.313Z,61.31
2023-02-16T18:31:50.927Z,61.56
2023-02-16T18:34:17.519Z,62.39
2023-02-16T18:36:44.356Z,62.62
2023-02-16T18:39:11.370Z,64.05
2023-02-16T18:41:37.988Z,64.94
2023-02-16T18:44:05.055Z,65.73
2023-02-16T18:46:31.642Z,66.98
2023-02-16T18:48:58.315Z,68.27
2023-02-16T18:51:28.791Z,68.65
2023-02-16T18:53:57.691Z,68.05
2023-02-16T18:56:24.625Z,68.44
2023-02-16T19:01:30.633Z,68.98
2023-02-16T19:03:57.425Z,69.60
2023-02-16T19:06:24.216Z,69.62
2023-02-16T19:08:53.609Z,69.52
2023-02-16T19:11:21.062Z,69.27
2023-02-16T19:13:48.453Z,67.90
2023-02-16T19:16:16.284Z,68.51
2023-02-16T19:18:43.217Z,68.62
2023-02-16T19:21:12.968Z,68.41
2023-02-16T19:23:40.034Z,68.50
2023-02-16T19:26:08.490Z,68.05
2023-02-16T19:28:36.299Z,68.16
2023-02-16T19:31:05.178Z,68.38
2023-02-16T19:33:32.386Z,70.78
2023-02-16T19:36:02.861Z,71.56
2023-02-16T19:38:29.863Z,73.96
2023-02-16T19:40:56.428Z,75.74
2023-02-16T19:43:23.958Z,76.38
2023-02-16T19:45:50.976Z,78.90
2023-02-16T19:48:18.613Z,80.15
2023-02-16T19:50:45.480Z,81.44
2023-02-16T19:53:12.048Z,82.51
2023-02-16T19:55:42.256Z,83.72
2023-02-16T19:58:08.870Z,86.24
2023-02-16T20:00:36.431Z,86.54
2023-02-16T20:03:03.200Z,86.15
2023-02-16T20:05:29.782Z,87.59
2023-02-16T20:07:56.446Z,87.43
2023-02-16T20:10:23.053Z,87.31
2023-02-16T20:12:49.641Z,86.59
2023-02-16T20:15:16.201Z,88.23
2023-02-16T20:17:42.866Z,85.85
2023-02-16T20:20:09.717Z,86.68
2023-02-16T20:22:36.333Z,86.81
2023-02-16T20:25:03.396Z,87.26
2023-02-16T20:27:30.193Z,88.22
2023-02-16T20:29:56.917Z,87.78
2023-02-16T20:32:25.602Z,87.38
2023-02-16T20:34:52.174Z,87.77
2023-02-16T20:37:18.816Z,86.15
2023-02-16T20:39:46.033Z,86.89
2023-02-16T20:42:12.577Z,85.65
2023-02-16T20:44:39.424Z,85.64
2023-02-16T20:47:08.001Z,84.94
2023-02-16T20:49:35.170Z,84.30
2023-02-16T20:52:02.125Z,84.91
2023-02-16T20:54:28.927Z,84.50
2023-02-16T20:56:55.504Z,85.34
2023-02-16T20:59:22.020Z,85.81
2023-02-16T21:01:51.204Z,85.90
2023-02-16T21:04:19.504Z,87.00
2023-02-16T21:06:46.219Z,88.47
2023-02-16T21:09:14.377Z,88.42
2023-02-16T21:11:42.271Z,90.06
2023-02-16T21:14:11.555Z,89.78
2023-02-16T21:16:40.783Z,91.53
2023-02-16T21:19:20.999Z,90.87
2023-02-16T21:21:49.643Z,92.85
2023-02-16T21:24:16.201Z,93.30
2023-02-16T21:26:42.860Z,94.28
2023-02-16T21:29:09.570Z,94.69
2023-02-16T21:31:36.479Z,96.06
2023-02-16T21:34:03.931Z,94.91
2023-02-16T21:36:30.597Z,96.25
2023-02-16T21:38:57.155Z,95.72
2023-02-16T21:41:27.459Z,96.69
2023-02-16T21:44:06.837Z,97.54
2023-02-16T21:46:39.682Z,96.88
2023-02-16T21:49:08.629Z,97.60
2023-02-16T21:51:37.342Z,98.29
2023-02-16T21:54:09.408Z,97.78
2023-02-16T21:56:40.314Z,99.82
2023-02-16T21:59:12.947Z,100.00
2023-02-16T22:01:43.021Z,100.00
2023-02-16T22:04:15.940Z,100.00
2023-02-16T22:06:47.273Z,100.00
2023-02-16T22:09:17.460Z,100.00
2023-02-16T22:11:45.415Z,100.00
2023-02-16T22:14:12.421Z,100.00
2023-02-16T22:16:40.825Z,100.00
2023-02-16T22:19:16.419Z,100.00
2023-02-16T22:21:44.861Z,100.00
2023-02-16T22:24:13.945Z,100.00
2023-02-16T22:26:40.918Z,100.00
2023-02-16T22:29:08.849Z,100.00
2023-02-16T22:31:35.938Z,100.00
2023-02-16T22:34:06.389Z,100.00
2023-02-16T22:36:33.519Z,100.00
2023-02-16T22:39:00.075Z,100.00
2023-02-16T22:41:26.928Z,100.00
2023-02-16T22:43:54.936Z,100.00
2023-02-16T22:46:23.824Z,100.00
2023-02-16T22:48:50.754Z,100.00
2023-02-16T22:51:18.308Z,100.00
2023-02-16T22:53:45.169Z,100.00
2023-02-16T22:56:14.656Z,100.00
2023-02-16T22:58:41.413Z,100.00
2023-02-16T23:01:13.176Z,100.00
2023-02-16T23:03:40.641Z,100.00
2023-02-16T23:06:15.851Z,100.00
2023-02-16T23:08:44.069Z,99.89
2023-02-16T23:11:11.902Z,98.61
2023-02-16T23:13:38.759Z,100.00
2023-02-16T23:16:08.331Z,100.00
2023-02-16T23:18:35.317Z,100.00
2023-02-16T23:21:17.525Z,100.00
2023-02-16T23:23:45.619Z,100.00
2023-02-16T23:26:12.349Z,100.00
2023-02-16T23:28:40.978Z,100.00
2023-02-16T23:31:08.076Z,100.00
2023-02-16T23:33:34.980Z,100.00
2023-02-16T23:36:01.851Z,100.00
2023-02-16T23:38:28.500Z,100.00
2023-02-16T23:41:08.635Z,100.00
2023-02-16T23:43:35.778Z,100.00
2023-02-16T23:46:03.642Z,100.00
2023-02-16T23:48:30.986Z,100.00
2023-02-16T23:50:58.159Z,100.00
2023-02-16T23:53:27.216Z,100.00
2023-02-16T23:56:02.452Z,100.00
2023-02-16T23:58:31.169Z,100.00
